Time;durP1;ratioP1;P1;durP2;ratioP2;P2;SDS_P1;SDS_P2;PMS_P1;PMS_P2;Temp;Humidity;BMP_temperature;BMP_pressure;BME280_temperature;BME280_humidity;BME280_pressure;Samples;Min_cycle;Max_cycle;Signal;HPM_P1;HPM_P2
2021/01/11 00:02:19;;;;;;;56.92;24.27;;;-3275.30;71.40;;;;;;5060970;28;20092;-68
2021/01/11 00:04:45;;;;;;;53.67;23.25;;;-3275.30;71.20;;;;;;5060773;28;20041;-68
2021/01/11 00:07:11;;;;;;;50.63;22.33;;;-3275.30;71.20;;;;;;5060788;28;21896;-68
2021/01/11 00:09:37;;;;;;;54.72;23.23;;;-3275.30;71.20;;;;;;5064205;28;20039;-68
2021/01/11 00:12:03;;;;;;;48.60;21.55;;;-3275.30;70.90;;;;;;5061739;28;20217;-68
2021/01/11 00:14:28;;;;;;;54.90;22.05;;;-3275.20;70.90;;;;;;5060557;28;20340;-68
2021/01/11 00:16:54;;;;;;;57.15;24.50;;;-3275.20;70.60;;;;;;5060866;28;20038;-68
2021/01/11 00:19:19;;;;;;;57.63;23.15;;;-3275.30;70.50;;;;;;5060823;28;20053;-68
2021/01/11 00:21:46;;;;;;;60.80;24.75;;;-3275.20;70.20;;;;;;5064657;28;20059;-68
2021/01/11 00:24:12;;;;;;;58.10;23.23;;;-3275.20;70.50;;;;;;5061069;28;20048;-68
2021/01/11 00:26:37;;;;;;;59.30;25.60;;;-3275.20;70.30;;;;;;5060678;28;20041;-69
2021/01/11 00:29:03;;;;;;;58.78;22.67;;;-3275.20;70.70;;;;;;5060850;28;20206;-68
2021/01/11 00:31:28;;;;;;;55.72;23.90;;;-3275.20;70.60;;;;;;5061039;28;20045;-68
2021/01/11 00:33:54;;;;;;;62.05;24.67;;;-3275.20;70.30;;;;;;5060673;28;20029;-68
2021/01/11 00:36:20;;;;;;;65.32;25.45;;;-3275.10;70.30;;;;;;5064009;28;20244;-68
2021/01/11 00:38:45;;;;;;;65.93;24.60;;;-3275.10;70.70;;;;;;5061086;28;20048;-68
2021/01/11 00:41:21;;;;;;;70.97;24.95;;;-3275.10;71.10;;;;;;5060861;28;20112;-68
2021/01/11 00:43:47;;;;;;;58.00;23.45;;;-3275.00;71.80;;;;;;5060450;28;20029;-68
2021/01/11 00:46:25;;;;;;;61.72;23.05;;;-3275.00;71.30;;;;;;5060809;28;20036;-68
2021/01/11 00:48:51;;;;;;;53.67;21.63;;;-3275.00;71.20;;;;;;5061139;28;20181;-64
2021/01/11 00:51:17;;;;;;;53.38;22.08;;;-3275.00;71.00;;;;;;5063642;28;20025;-70
2021/01/11 00:53:45;;;;;;;46.78;21.15;;;-3275.00;70.80;;;;;;5060464;28;20213;-69
2021/01/11 00:56:18;;;;;;;49.38;21.33;;;-3274.90;70.80;;;;;;5060302;28;20047;-68
2021/01/11 00:58:44;;;;;;;52.72;22.45;;;-3274.90;70.70;;;;;;5060745;28;20059;-68
2021/01/11 01:01:10;;;;;;;63.38;20.70;;;-3274.80;71.10;;;;;;5060850;28;20220;-68
2021/01/11 01:03:36;;;;;;;51.67;21.65;;;-3274.90;71.70;;;;;;5050350;28;20399;-68
2021/01/11 01:06:01;;;;;;;53.45;22.40;;;-3275.00;71.50;;;;;;5064578;28;20045;-68
2021/01/11 01:08:27;;;;;;;48.05;19.70;;;-3275.00;71.40;;;;;;5064407;28;20067;-68
2021/01/11 01:10:53;;;;;;;47.45;19.70;;;-3275.10;71.10;;;;;;5064182;28;20146;-68
2021/01/11 01:13:18;;;;;;;44.03;19.90;;;-3275.10;70.90;;;;;;5064395;28;20033;-68
2021/01/11 01:15:44;;;;;;;46.20;19.77;;;-3275.00;70.30;;;;;;5066886;28;20297;-68
2021/01/11 01:18:09;;;;;;;49.03;19.70;;;-3274.90;70.70;;;;;;5064368;28;20317;-68
2021/01/11 01:20:35;;;;;;;46.10;19.08;;;-3274.80;70.70;;;;;;5063878;28;20355;-68
2021/01/11 01:23:00;;;;;;;45.47;19.48;;;-3274.90;70.70;;;;;;5064149;28;20119;-68
2021/01/11 01:25:26;;;;;;;46.28;19.27;;;-3274.80;71.00;;;;;;5064490;28;20033;-68
2021/01/11 01:27:51;;;;;;;48.42;20.25;;;-3274.80;71.10;;;;;;5063635;28;20028;-67
2021/01/11 01:30:17;;;;;;;47.13;19.13;;;-3274.90;70.70;;;;;;5067161;28;20032;-68
2021/01/11 01:32:43;;;;;;;42.83;18.00;;;-3274.90;70.60;;;;;;5064058;28;20037;-68
2021/01/11 01:35:09;;;;;;;45.45;18.30;;;-3275.10;70.80;;;;;;5063540;28;20068;-68
2021/01/11 01:37:35;;;;;;;39.65;17.50;;;-3275.00;70.20;;;;;;5063630;28;20040;-68
2021/01/11 01:40:01;;;;;;;39.72;18.08;;;-3275.00;69.90;;;;;;5063962;28;20028;-67
2021/01/11 01:42:26;;;;;;;47.72;19.48;;;-3274.90;69.80;;;;;;5066884;28;20212;-68
2021/01/11 01:44:52;;;;;;;50.28;19.27;;;-3274.90;70.10;;;;;;5064047;28;20116;-68
2021/01/11 01:47:17;;;;;;;60.55;20.25;;;-3274.80;70.10;;;;;;5063442;28;20390;-68
2021/01/11 01:49:43;;;;;;;51.25;20.13;;;-3274.60;70.70;;;;;;5063278;28;20052;-68
2021/01/11 01:52:09;;;;;;;48.28;18.95;;;-3274.70;71.10;;;;;;5045600;28;20025;-68
2021/01/11 01:54:35;;;;;;;51.92;20.40;;;-3274.70;71.10;;;;;;5048784;28;20052;-68
2021/01/11 01:57:01;;;;;;;46.75;17.52;;;-3274.70;70.70;;;;;;5046055;28;20025;-68
2021/01/11 01:59:27;;;;;;;44.15;20.00;;;-3274.70;70.70;;;;;;5045686;28;20371;-68
2021/01/11 02:01:54;;;;;;;43.03;17.77;;;-3274.80;71.30;;;;;;5045662;28;20029;-68
2021/01/11 02:04:19;;;;;;;42.95;18.40;;;-3274.90;71.10;;;;;;5063562;28;20059;-68
2021/01/11 02:06:45;;;;;;;48.38;18.40;;;-3274.70;70.40;;;;;;5066116;28;20028;-68
2021/01/11 02:09:18;;;;;;;50.78;18.98;;;-3274.60;71.00;;;;;;5045954;28;20024;-69
2021/01/11 02:11:54;;;;;;;47.85;18.48;;;-3274.60;71.20;;;;;;5045754;28;20037;-68
2021/01/11 02:14:57;;;;;;;46.42;17.75;;;-3274.50;71.20;;;;;;5045464;28;20213;-68
2021/01/11 02:17:35;;;;;;;43.97;19.17;;;-3274.40;71.50;;;;;;5062766;28;20333;-69
2021/01/11 02:20:36;;;;;;;50.45;20.17;;;-3274.50;72.00;;;;;;5046851;28;20154;-68
2021/01/11 02:23:17;;;;;;;51.20;20.13;;;-3274.70;71.90;;;;;;5030684;28;20247;-68
2021/01/11 02:25:44;;;;;;;51.20;20.75;;;-3274.70;71.70;;;;;;5045172;28;20044;-68
2021/01/11 02:28:28;;;;;;;49.05;20.10;;;-3274.70;72.10;;;;;;5045367;28;20036;-68
2021/01/11 02:30:55;;;;;;;50.10;20.45;;;-3274.80;71.70;;;;;;5063066;28;20029;-68
2021/01/11 02:33:20;;;;;;;48.33;19.58;;;-3274.80;72.00;;;;;;5048509;28;20025;-68
2021/01/11 02:35:49;;;;;;;50.38;19.33;;;-3274.80;71.50;;;;;;5044639;28;20067;-68
2021/01/11 02:38:15;;;;;;;43.75;19.30;;;-3274.80;71.60;;;;;;5062313;28;20395;-68
2021/01/11 02:40:41;;;;;;;51.13;20.10;;;-3274.90;71.90;;;;;;5028003;28;20044;-68
2021/01/11 02:43:06;;;;;;;47.10;19.08;;;-3274.90;71.10;;;;;;5044866;28;20013;-68
2021/01/11 02:45:32;;;;;;;46.70;19.42;;;-3274.90;71.50;;;;;;5065469;28;20063;-68
2021/01/11 02:48:15;;;;;;;51.53;19.90;;;-3274.90;71.50;;;;;;5062659;28;20260;-68
2021/01/11 02:50:50;;;;;;;55.20;20.25;;;-3274.80;71.40;;;;;;5044823;28;20037;-69
2021/01/11 02:53:28;;;;;;;43.42;18.35;;;-3274.90;71.50;;;;;;5062465;28;20060;-69
2021/01/11 02:55:56;;;;;;;48.70;20.00;;;-3274.80;71.60;;;;;;5044655;28;20033;-68
2021/01/11 02:58:30;;;;;;;51.63;20.65;;;-3274.80;71.70;;;;;;5040351;28;20224;-68
2021/01/11 03:00:56;;;;;;;49.13;20.00;;;-3274.80;71.90;;;;;;5042065;28;20033;-67
2021/01/11 03:03:22;;;;;;;51.35;20.02;;;-3274.80;71.70;;;;;;5044052;28;20025;-68
2021/01/11 03:05:50;;;;;;;49.53;20.42;;;-3274.80;71.90;;;;;;5040949;28;20206;-68
2021/01/11 03:08:15;;;;;;;55.17;21.42;;;-3274.80;72.00;;;;;;5040807;28;20213;-68
2021/01/11 03:10:41;;;;;;;55.03;20.75;;;-3274.70;72.40;;;;;;5040759;28;20132;-68
2021/01/11 03:13:06;;;;;;;55.72;21.17;;;-3274.80;72.50;;;;;;5041929;28;20030;-68
2021/01/11 03:15:32;;;;;;;52.92;20.33;;;-3274.80;72.50;;;;;;5044728;28;20116;-68
2021/01/11 03:17:57;;;;;;;52.88;21.13;;;-3274.70;72.80;;;;;;5042001;28;20317;-68
2021/01/11 03:20:23;;;;;;;57.92;21.65;;;-3274.80;72.20;;;;;;5041849;28;20049;-68
2021/01/11 03:22:48;;;;;;;56.42;21.55;;;-3274.70;72.60;;;;;;5041817;28;20321;-68
2021/01/11 03:25:14;;;;;;;55.05;21.10;;;-3274.60;72.70;;;;;;5041357;28;20029;-68
2021/01/11 03:27:40;;;;;;;56.15;21.95;;;-3274.60;73.20;;;;;;5044610;28;20024;-68
2021/01/11 03:30:06;;;;;;;56.58;22.42;;;-3274.60;73.00;;;;;;5042057;28;20033;-68
2021/01/11 03:32:31;;;;;;;51.47;20.80;;;-3274.80;73.00;;;;;;5041875;28;20037;-68
2021/01/11 03:34:57;;;;;;;53.90;21.52;;;-3274.80;72.90;;;;;;5041716;28;20042;-68
2021/01/11 03:37:22;;;;;;;52.53;21.23;;;-3274.90;72.50;;;;;;5041571;28;20022;-68
2021/01/11 03:39:48;;;;;;;48.63;20.95;;;-3275.10;73.00;;;;;;5044854;28;20075;-69
2021/01/11 03:42:14;;;;;;;50.15;21.45;;;-3275.10;72.00;;;;;;5041435;28;20037;-68
2021/01/11 03:44:39;;;;;;;47.00;20.17;;;-3275.00;71.50;;;;;;5041368;28;20105;-68
2021/01/11 03:47:05;;;;;;;47.47;19.63;;;-3275.10;71.60;;;;;;5041400;28;20048;-68
2021/01/11 03:49:30;;;;;;;45.53;20.20;;;-3275.10;72.00;;;;;;5041551;28;20104;-68
2021/01/11 03:52:00;;;;;;;48.15;20.63;;;-3275.10;71.20;;;;;;5041429;28;20068;-68
2021/01/11 03:54:27;;;;;;;50.22;20.77;;;-3275.00;71.20;;;;;;5044433;28;20212;-68
2021/01/11 03:56:53;;;;;;;45.33;19.90;;;-3275.10;71.80;;;;;;5041538;28;20038;-68
2021/01/11 03:59:18;;;;;;;46.45;20.50;;;-3275.00;71.20;;;;;;5041425;28;20068;-68
2021/01/11 04:01:44;;;;;;;48.90;20.15;;;-3275.00;71.20;;;;;;5041378;28;20041;-68
2021/01/11 04:04:09;;;;;;;50.55;20.40;;;-3274.90;71.50;;;;;;5041042;28;20347;-68
2021/01/11 04:06:35;;;;;;;48.28;20.38;;;-3274.90;71.40;;;;;;5044351;28;20356;-68
2021/01/11 04:09:00;;;;;;;47.67;20.35;;;-3274.90;71.80;;;;;;5041353;28;20046;-68
2021/01/11 04:11:26;;;;;;;44.92;19.42;;;-3275.00;71.80;;;;;;5041041;28;20112;-68
2021/01/11 04:13:51;;;;;;;44.85;19.38;;;-3274.90;71.50;;;;;;5041056;28;20037;-68
2021/01/11 04:16:17;;;;;;;45.88;19.58;;;-3275.00;71.40;;;;;;5041360;28;20053;-68
2021/01/11 04:18:43;;;;;;;50.63;21.02;;;-3275.10;71.40;;;;;;5044225;28;20037;-68
2021/01/11 04:21:12;;;;;;;46.05;20.20;;;-3275.10;71.20;;;;;;5041091;28;20045;-68
2021/01/11 04:23:37;;;;;;;50.03;20.38;;;-3275.00;71.30;;;;;;5041204;28;20045;-68
2021/01/11 04:26:03;;;;;;;51.38;21.58;;;-3275.20;71.10;;;;;;5040739;28;20104;-68
2021/01/11 04:28:29;;;;;;;49.95;22.17;;;-3275.20;70.30;;;;;;5041134;28;20037;-68
2021/01/11 04:30:54;;;;;;;51.70;20.67;;;-3275.10;70.30;;;;;;5040576;28;20216;-67
2021/01/11 04:33:20;;;;;;;50.72;20.50;;;-3275.10;71.10;;;;;;5043771;28;20414;-68
2021/01/11 04:35:45;;;;;;;42.47;19.00;;;-3275.00;70.60;;;;;;5040685;28;20112;-68
2021/01/11 04:38:11;;;;;;;46.78;20.02;;;-3275.10;71.10;;;;;;5044590;28;20137;-68
2021/01/11 04:40:36;;;;;;;42.40;19.38;;;-3275.00;70.30;;;;;;5044971;28;20097;-68
2021/01/11 04:43:02;;;;;;;42.72;18.83;;;-3275.20;70.50;;;;;;5044774;28;20025;-67
2021/01/11 04:45:27;;;;;;;43.67;18.52;;;-3275.10;69.80;;;;;;5047970;28;20220;-68
2021/01/11 04:47:57;;;;;;;41.10;18.65;;;-3275.20;70.40;;;;;;5044510;28;20048;-68
2021/01/11 04:50:23;;;;;;;47.95;19.73;;;-3275.10;69.90;;;;;;5044311;28;20052;-68
2021/01/11 04:52:49;;;;;;;47.63;19.85;;;-3275.10;69.60;;;;;;5043284;28;20037;-68
2021/01/11 04:55:15;;;;;;;49.80;20.00;;;-3274.90;70.40;;;;;;5044342;28;20205;-68
2021/01/11 04:57:52;;;;;;;47.53;19.63;;;-3274.90;70.10;;;;;;5047474;28;20342;-68
2021/01/11 05:00:25;;;;;;;48.08;20.58;;;-3274.70;70.10;;;;;;5045263;28;20037;-68
2021/01/11 05:02:58;;;;;;;44.60;19.35;;;-3274.80;70.40;;;;;;5044702;28;20041;-68
2021/01/11 05:05:24;;;;;;;49.30;19.48;;;-3274.80;70.60;;;;;;5044465;28;20049;-68
2021/01/11 05:07:50;;;;;;;48.75;20.17;;;-3274.90;70.10;;;;;;5044409;28;20033;-68
2021/01/11 05:10:32;;;;;;;45.78;19.50;;;-3274.70;69.80;;;;;;5043897;28;20076;-68
2021/01/11 05:13:08;;;;;;;45.33;18.65;;;-3274.60;70.70;;;;;;5044062;28;20325;-67
2021/01/11 05:15:34;;;;;;;41.60;18.50;;;-3274.70;70.30;;;;;;5047020;28;20064;-68
2021/01/11 05:18:00;;;;;;;44.42;19.40;;;-3274.80;70.70;;;;;;5062061;28;20041;-68
2021/01/11 05:20:30;;;;;;;40.15;17.25;;;-3274.50;69.80;;;;;;5063712;28;20097;-68
2021/01/11 05:22:59;;;;;;;46.88;19.95;;;-3274.30;71.10;;;;;;5063870;28;20029;-68
2021/01/11 05:25:26;;;;;;;46.03;19.90;;;-3274.30;70.10;;;;;;5064157;28;20044;-68
2021/01/11 05:28:05;;;;;;;45.42;19.23;;;-3274.40;70.00;;;;;;5046134;28;20036;-66
2021/01/11 05:30:36;;;;;;;49.17;20.48;;;-3274.40;70.00;;;;;;5049373;28;20043;-68
2021/01/11 05:33:03;;;;;;;47.47;19.85;;;-3274.40;69.90;;;;;;5064143;28;20075;-68
2021/01/11 05:35:28;;;;;;;49.70;21.08;;;-3274.40;69.30;;;;;;5063390;28;20064;-68
2021/01/11 05:37:54;;;;;;;52.25;20.92;;;-3274.30;69.70;;;;;;5063762;28;20094;-68
2021/01/11 05:40:21;;;;;;;43.35;19.35;;;-3274.20;70.00;;;;;;5063717;28;20088;-68
2021/01/11 05:42:53;;;;;;;51.80;21.52;;;-3274.30;70.20;;;;;;5066554;28;20336;-68
2021/01/11 05:45:28;;;;;;;45.95;19.63;;;-3274.40;69.90;;;;;;5064445;28;20232;-68
2021/01/11 05:47:57;;;;;;;49.63;20.90;;;-3274.40;69.80;;;;;;5063358;28;20045;-68
2021/01/11 05:50:28;;;;;;;48.78;21.13;;;-3274.40;69.70;;;;;;5063556;28;20225;-66
2021/01/11 05:52:54;;;;;;;48.85;20.30;;;-3274.50;69.90;;;;;;5063475;28;20036;-68
2021/01/11 05:55:21;;;;;;;46.05;20.00;;;-3274.40;69.50;;;;;;5063143;28;20037;-67
2021/01/11 05:58:13;;;;;;;57.72;21.05;;;-3274.40;69.40;;;;;;5066336;28;20055;-67
2021/01/11 06:00:40;;;;;;;50.10;20.85;;;-3274.40;70.30;;;;;;5060702;28;20036;-67
2021/01/11 06:03:06;;;;;;;54.40;21.95;;;-3274.60;70.10;;;;;;5063260;28;20037;-67
2021/01/11 06:05:32;;;;;;;51.00;20.42;;;-3274.60;69.50;;;;;;5063067;28;20039;-67
2021/01/11 06:07:59;;;;;;;52.05;21.33;;;-3274.60;70.20;;;;;;5063033;28;20054;-67
2021/01/11 06:10:25;;;;;;;50.20;19.95;;;-3274.50;69.90;;;;;;5057849;28;20041;-67
2021/01/11 06:12:50;;;;;;;49.95;20.30;;;-3274.20;69.40;;;;;;5046256;28;20029;-67
2021/01/11 06:15:21;;;;;;;55.00;22.15;;;-3274.20;69.60;;;;;;5042592;28;20103;-67
2021/01/11 06:17:48;;;;;;;50.13;21.20;;;-3274.40;70.40;;;;;;5025189;28;20096;-67
2021/01/11 06:20:21;;;;;;;50.45;20.45;;;-3274.40;70.10;;;;;;5042918;28;20272;-67
2021/01/11 06:22:46;;;;;;;49.97;21.48;;;-3274.50;69.80;;;;;;5024993;28;20045;-67
2021/01/11 06:25:18;;;;;;;48.13;19.75;;;-3274.60;70.20;;;;;;5042514;28;20140;-67
2021/01/11 06:28:13;;;;;;;52.83;21.15;;;-3274.70;70.50;;;;;;5046106;28;20071;-67
2021/01/11 06:30:45;;;;;;;52.63;21.40;;;-3274.60;68.70;;;;;;5044440;28;20078;-66
2021/01/11 06:33:17;;;;;;;47.75;20.60;;;-3274.70;70.10;;;;;;5043104;28;20033;-67
2021/01/11 06:35:46;;;;;;;46.17;19.98;;;-3274.60;69.00;;;;;;5042621;28;20068;-67
2021/01/11 06:38:25;;;;;;;53.50;21.67;;;-3274.50;69.10;;;;;;5042454;28;20037;-67
2021/01/11 06:41:03;;;;;;;47.90;19.30;;;-3274.60;69.60;;;;;;5041568;28;20087;-67
2021/01/11 06:43:38;;;;;;;51.03;20.25;;;-3274.40;69.00;;;;;;5042536;28;20034;-67
2021/01/11 06:46:03;;;;;;;49.90;20.25;;;-3274.50;69.70;;;;;;5042365;28;20092;-67
2021/01/11 06:48:31;;;;;;;43.13;18.92;;;-3274.50;69.70;;;;;;5045924;28;20033;-67
2021/01/11 06:50:57;;;;;;;43.28;18.50;;;-3274.60;70.20;;;;;;5042483;28;20041;-65
2021/01/11 06:53:27;;;;;;;43.08;18.75;;;-3274.70;68.80;;;;;;5041060;28;20205;-66
2021/01/11 06:56:09;;;;;;;44.35;17.83;;;-3274.70;68.30;;;;;;5041032;28;20099;-67
2021/01/11 06:58:39;;;;;;;41.03;17.13;;;-3274.70;68.20;;;;;;5041526;28;20037;-67
2021/01/11 07:01:09;;;;;;;45.03;18.65;;;-3274.60;68.30;;;;;;5041752;28;20033;-68
2021/01/11 07:03:45;;;;;;;48.05;19.23;;;-3274.50;68.00;;;;;;5045332;28;20075;-68
2021/01/11 07:06:35;;;;;;;41.95;18.67;;;-3274.40;68.70;;;;;;5042496;28;20057;-71
2021/01/11 07:09:07;;;;;;;49.70;19.50;;;-3274.40;68.60;;;;;;5042170;28;20033;-69
2021/01/11 07:11:40;;;;;;;44.80;18.95;;;-3274.20;68.00;;;;;;5041786;28;20037;-71
2021/01/11 07:14:05;;;;;;;45.13;18.63;;;-3274.30;68.10;;;;;;5041622;28;20079;-73
2021/01/11 07:16:38;;;;;;;46.50;19.77;;;-3274.20;68.10;;;;;;5040754;28;20104;-69
2021/01/11 07:19:04;;;;;;;46.42;19.25;;;-3274.30;69.10;;;;;;5040398;28;20056;-68
2021/01/11 07:21:30;;;;;;;46.83;20.05;;;-3274.30;68.50;;;;;;5044964;28;20041;-69
2021/01/11 07:23:56;;;;;;;49.40;19.45;;;-3274.30;68.60;;;;;;5042126;28;20261;-68
2021/01/11 07:26:23;;;;;;;48.47;20.60;;;-3274.30;68.80;;;;;;5041972;28;20042;-68
2021/01/11 07:28:49;;;;;;;42.45;18.98;;;-3274.30;69.10;;;;;;5042145;28;20101;-69
2021/01/11 07:31:28;;;;;;;45.10;19.10;;;-3274.30;68.80;;;;;;5031805;28;20037;-69
2021/01/11 07:34:02;;;;;;;47.78;18.40;;;-3274.30;69.10;;;;;;5041915;28;20097;-68
2021/01/11 07:36:29;;;;;;;49.05;19.58;;;-3274.30;68.90;;;;;;5045124;28;20093;-69
2021/01/11 07:39:20;;;;;;;43.92;18.60;;;-3274.40;69.00;;;;;;5041948;28;20214;-68
2021/01/11 07:41:55;;;;;;;47.35;20.10;;;-3274.40;68.30;;;;;;5040520;28;20060;-69
2021/01/11 07:44:37;;;;;;;49.25;19.20;;;-3274.30;68.40;;;;;;5053828;28;20065;-69
2021/01/11 07:47:10;;;;;;;46.63;19.17;;;-3274.30;69.20;;;;;;5051414;28;20338;-71
2021/01/11 07:49:37;;;;;;;46.75;18.00;;;-3274.40;68.80;;;;;;5041126;28;20033;-71
2021/01/11 07:52:18;;;;;;;40.60;17.77;;;-3274.30;69.30;;;;;;5041493;28;20036;-74
2021/01/11 07:54:44;;;;;;;40.78;17.13;;;-3274.40;69.30;;;;;;5044518;28;20202;-72
2021/01/11 07:57:14;;;;;;;41.03;17.52;;;-3274.40;69.10;;;;;;5041243;28;20084;-71
2021/01/11 07:59:40;;;;;;;40.17;17.92;;;-3274.30;68.50;;;;;;5041604;28;20317;-72
2021/01/11 08:02:13;;;;;;;42.13;18.35;;;-3274.40;68.50;;;;;;5041126;28;20041;-70
2021/01/11 08:04:38;;;;;;;49.40;18.95;;;-3274.40;68.40;;;;;;5041239;28;20363;-70
2021/01/11 08:07:07;;;;;;;42.22;18.85;;;-3274.40;68.30;;;;;;5041430;28;20037;-71
2021/01/11 08:09:33;;;;;;;47.58;18.75;;;-3274.50;68.80;;;;;;5044555;28;20025;-72
2021/01/11 08:12:09;;;;;;;43.58;18.42;;;-3274.40;69.20;;;;;;5040037;28;20096;-71
2021/01/11 08:14:36;;;;;;;49.53;18.48;;;-3274.50;68.60;;;;;;5040572;28;20053;-71
2021/01/11 08:17:02;;;;;;;45.03;19.08;;;-3274.60;69.20;;;;;;5041398;28;20034;-71
2021/01/11 08:19:28;;;;;;;45.15;18.75;;;-3274.60;68.60;;;;;;5041264;28;20060;-71
2021/01/11 08:22:04;;;;;;;39.33;17.15;;;-3274.50;68.80;;;;;;5028067;28;20021;-65
2021/01/11 08:24:30;;;;;;;43.45;18.80;;;-3274.60;68.20;;;;;;5043129;28;20037;-70
2021/01/11 08:27:14;;;;;;;41.00;17.92;;;-3274.60;68.40;;;;;;5039464;28;20025;-71
2021/01/11 08:29:40;;;;;;;38.78;17.50;;;-3274.50;68.10;;;;;;5028441;28;20144;-72
2021/01/11 08:32:13;;;;;;;39.08;17.70;;;-3274.70;68.90;;;;;;5051389;28;20032;-73
2021/01/11 08:34:41;;;;;;;44.67;17.55;;;-3274.80;68.90;;;;;;5043306;28;20111;-71
2021/01/11 08:37:29;;;;;;;45.55;17.67;;;-3274.70;68.20;;;;;;5060654;28;20285;-72
2021/01/11 08:40:04;;;;;;;43.53;17.00;;;-3274.80;69.30;;;;;;5061168;28;20029;-72
2021/01/11 08:42:30;;;;;;;40.70;17.55;;;-3274.90;67.50;;;;;;5064062;28;20033;-73
2021/01/11 08:45:15;;;;;;;40.47;17.00;;;-3274.90;67.60;;;;;;5061042;28;20056;-72
2021/01/11 08:47:41;;;;;;;37.03;16.38;;;-3274.90;67.80;;;;;;5060358;28;20037;-72
2021/01/11 08:50:07;;;;;;;38.50;17.50;;;-3274.90;67.40;;;;;;5043026;28;20355;-71
2021/01/11 08:52:33;;;;;;;44.13;18.65;;;-3275.00;67.70;;;;;;5060798;28;20060;-72
2021/01/11 08:55:09;;;;;;;39.28;17.95;;;-3275.10;67.10;;;;;;5060375;28;20122;-72
2021/01/11 08:57:35;;;;;;;42.17;17.90;;;-3275.20;66.60;;;;;;5064000;28;20226;-72
2021/01/11 09:00:07;;;;;;;39.47;16.77;;;-3275.10;66.20;;;;;;5061137;28;20037;-72
2021/01/11 09:02:33;;;;;;;40.08;17.80;;;-3275.10;65.90;;;;;;5043513;28;20262;-71
2021/01/11 09:05:32;;;;;;;43.45;18.90;;;-3275.00;66.40;;;;;;5025994;28;20083;-70
2021/01/11 09:07:58;;;;;;;43.67;17.75;;;-3275.20;66.70;;;;;;5036377;28;20108;-71
2021/01/11 09:10:27;;;;;;;48.30;17.05;;;-3275.60;66.40;;;;;;5042918;28;20056;-71
2021/01/11 09:12:53;;;;;;;36.38;16.08;;;-3275.60;64.10;;;;;;5060577;28;20036;-70
2021/01/11 09:15:26;;;;;;;36.25;16.52;;;-3275.30;64.60;;;;;;5063400;28;20232;-72
2021/01/11 09:18:02;;;;;;;39.55;17.08;;;-3275.40;64.80;;;;;;5043056;28;20036;-71
2021/01/11 09:20:27;;;;;;;44.65;19.90;;;-3275.50;62.70;;;;;;5060294;28;20094;-70
2021/01/11 09:22:55;;;;;;;42.13;18.17;;;-3275.50;63.50;;;;;;5061953;28;20029;-70
2021/01/11 09:25:21;;;;;;;39.03;17.27;;;-3275.50;63.10;;;;;;5063887;28;20116;-69
2021/01/11 09:27:48;;;;;;;42.17;18.48;;;-3275.50;63.00;;;;;;5067204;28;20036;-71
2021/01/11 09:30:15;;;;;;;38.85;17.30;;;-3275.60;62.20;;;;;;5064265;28;20033;-74
2021/01/11 09:32:45;;;;;;;42.67;18.30;;;-3275.40;61.40;;;;;;5064232;28;20104;-73
2021/01/11 09:35:15;;;;;;;41.92;17.83;;;-3275.50;62.50;;;;;;5063840;28;20048;-72
2021/01/11 09:37:41;;;;;;;39.00;17.77;;;-3275.50;62.40;;;;;;5046992;28;20276;-71
2021/01/11 09:40:07;;;;;;;39.55;17.63;;;-3275.40;62.50;;;;;;5063428;28;20025;-69
2021/01/11 09:42:32;;;;;;;40.22;18.92;;;-3275.50;62.30;;;;;;5066387;28;20071;-71
2021/01/11 09:44:58;;;;;;;40.95;18.02;;;-3275.80;62.00;;;;;;5063957;28;20040;-71
2021/01/11 09:47:24;;;;;;;38.22;17.05;;;-3276.20;61.10;;;;;;5063422;28;20083;-71
2021/01/11 09:49:49;;;;;;;37.22;16.42;;;0.00;60.60;;;;;;5063651;28;20037;-71
2021/01/11 09:52:15;;;;;;;34.42;16.25;;;0.40;59.30;;;;;;5063302;28;20039;-70
2021/01/11 09:54:41;;;;;;;35.33;16.25;;;0.70;57.30;;;;;;5066708;28;20093;-69
2021/01/11 09:57:10;;;;;;;35.25;16.42;;;0.90;56.90;;;;;;5063581;28;20321;-70
2021/01/11 09:59:38;;;;;;;35.00;16.00;;;1.00;57.60;;;;;;5063168;28;20052;-70
2021/01/11 10:02:04;;;;;;;33.67;16.23;;;1.00;56.90;;;;;;5063033;28;20100;-74
2021/01/11 10:04:29;;;;;;;38.80;17.13;;;1.00;55.90;;;;;;5062754;28;20198;-70
2021/01/11 10:06:56;;;;;;;38.35;16.85;;;0.90;56.80;;;;;;5063017;28;20036;-72
2021/01/11 10:09:26;;;;;;;32.42;16.27;;;0.40;56.60;;;;;;5049110;28;20024;-70
2021/01/11 10:11:53;;;;;;;39.40;17.35;;;0.20;57.30;;;;;;5046292;28;20033;-70
2021/01/11 10:14:19;;;;;;;35.88;16.85;;;0.00;58.70;;;;;;5062546;28;20118;-71
2021/01/11 10:16:45;;;;;;;35.25;16.42;;;0.00;59.80;;;;;;5045366;28;20033;-70
2021/01/11 10:19:16;;;;;;;34.58;16.80;;;0.20;58.90;;;;;;5062875;28;20266;-68
2021/01/11 10:21:41;;;;;;;34.50;17.25;;;0.30;59.10;;;;;;5066031;28;20224;-68
2021/01/11 10:24:07;;;;;;;37.35;17.77;;;0.20;59.80;;;;;;5063266;28;20048;-69
2021/01/11 10:26:34;;;;;;;37.50;17.83;;;0.20;60.30;;;;;;5062853;28;20037;-70
2021/01/11 10:28:59;;;;;;;38.78;17.42;;;0.30;60.80;;;;;;5062589;28;20359;-73
2021/01/11 10:31:25;;;;;;;33.72;16.63;;;0.30;61.20;;;;;;5062602;28;20033;-72
2021/01/11 10:33:51;;;;;;;34.50;16.40;;;0.20;60.60;;;;;;5048850;28;20033;-71
2021/01/11 10:36:16;;;;;;;33.78;16.50;;;0.20;60.90;;;;;;5042343;28;20128;-72
2021/01/11 10:38:42;;;;;;;33.72;16.65;;;0.20;61.30;;;;;;5057727;28;20328;-72
2021/01/11 10:41:08;;;;;;;37.05;17.08;;;0.10;59.40;;;;;;5062360;28;20252;-71
2021/01/11 10:43:34;;;;;;;34.78;17.15;;;0.20;61.70;;;;;;5062833;28;20037;-72
2021/01/11 10:46:01;;;;;;;34.05;17.35;;;0.10;60.90;;;;;;5062483;28;20096;-72
2021/01/11 10:48:27;;;;;;;39.30;17.52;;;0.10;60.20;;;;;;5065911;28;20332;-71
2021/01/11 10:50:53;;;;;;;36.08;17.30;;;0.00;60.30;;;;;;5062833;28;20037;-71
2021/01/11 10:53:18;;;;;;;38.63;18.48;;;-3276.70;61.50;;;;;;5045046;28;20091;-70
2021/01/11 10:55:44;;;;;;;34.03;16.35;;;0.00;61.40;;;;;;5062365;28;20277;-71
2021/01/11 10:58:10;;;;;;;40.78;18.13;;;0.10;61.50;;;;;;5062237;28;20091;-68
2021/01/11 11:00:36;;;;;;;40.83;18.58;;;0.30;61.70;;;;;;5065678;28;20075;-71
2021/01/11 11:03:04;;;;;;;36.53;17.77;;;0.30;60.80;;;;;;5062353;28;20104;-69
2021/01/11 11:05:30;;;;;;;38.65;18.00;;;0.30;61.40;;;;;;5044792;28;20276;-61
2021/01/11 11:07:55;;;;;;;38.72;19.20;;;0.40;61.10;;;;;;5061829;28;20092;-72
2021/01/11 11:10:21;;;;;;;38.28;17.60;;;0.20;59.70;;;;;;5061621;28;20029;-71
2021/01/11 11:12:47;;;;;;;37.97;17.58;;;0.30;60.80;;;;;;5065266;28;20033;-74
2021/01/11 11:15:13;;;;;;;37.97;17.80;;;0.20;60.00;;;;;;5061189;28;20068;-72
2021/01/11 11:17:39;;;;;;;34.15;18.10;;;0.30;60.00;;;;;;5062219;28;20037;-71
2021/01/11 11:20:05;;;;;;;36.28;17.63;;;0.30;59.80;;;;;;5044034;28;20032;-70
2021/01/11 11:22:31;;;;;;;33.70;16.75;;;0.40;60.10;;;;;;5061439;28;20260;-70
2021/01/11 11:24:56;;;;;;;34.97;16.90;;;0.60;59.90;;;;;;5061114;28;20056;-71
2021/01/11 11:27:22;;;;;;;39.78;16.50;;;0.80;58.40;;;;;;5065331;28;20212;-73
2021/01/11 11:29:48;;;;;;;36.78;17.75;;;0.80;57.30;;;;;;5061882;28;20048;-72
2021/01/11 11:32:16;;;;;;;34.45;17.17;;;0.80;58.00;;;;;;5061694;28;20045;-71
2021/01/11 11:34:41;;;;;;;35.53;16.52;;;0.90;58.70;;;;;;5044089;28;20139;-70
2021/01/11 11:37:07;;;;;;;38.22;16.75;;;0.90;58.00;;;;;;5061107;28;20332;-70
2021/01/11 11:39:33;;;;;;;36.00;17.88;;;0.90;58.50;;;;;;5064176;28;20204;-73
2021/01/11 11:41:59;;;;;;;33.53;17.05;;;0.70;58.40;;;;;;5061428;28;20343;-71
2021/01/11 11:44:25;;;;;;;36.63;16.38;;;0.90;58.70;;;;;;5061248;28;20214;-69
2021/01/11 11:46:51;;;;;;;32.97;16.98;;;1.00;58.60;;;;;;5060557;28;20029;-77
2021/01/11 11:49:16;;;;;;;35.70;16.73;;;1.20;57.90;;;;;;5060927;28;20040;-71
2021/01/11 11:51:45;;;;;;;39.75;17.80;;;1.30;58.10;;;;;;5064214;28;20025;-67
2021/01/11 11:54:11;;;;;;;34.00;16.85;;;1.30;57.80;;;;;;5060822;28;20049;-69
2021/01/11 11:56:42;;;;;;;40.70;17.55;;;1.40;58.30;;;;;;5061014;28;20105;-72
2021/01/11 11:59:08;;;;;;;40.15;18.30;;;1.50;58.40;;;;;;5032443;28;20037;-71
2021/01/11 12:01:38;;;;;;;32.42;16.92;;;1.50;58.20;;;;;;5029327;28;20200;-69
2021/01/11 12:04:03;;;;;;;33.13;16.73;;;1.70;57.80;;;;;;5060847;28;20029;-70
2021/01/11 12:06:58;;;;;;;37.08;18.02;;;1.90;56.80;;;;;;5046219;28;20316;-70
2021/01/11 12:09:24;;;;;;;38.78;17.67;;;2.30;56.50;;;;;;5044373;28;20033;-72
2021/01/11 12:11:50;;;;;;;36.35;17.33;;;2.50;54.20;;;;;;5060971;28;20099;-68
2021/01/11 12:14:16;;;;;;;43.42;17.73;;;2.80;54.80;;;;;;5060445;28;20041;-68